sensor_id;sensor_type;location;lat;lon;timestamp;temperature;humidity
22418;DHT22;11376;50.932;4.442;2022-10-16T00:01:05;15.80;99.90
22418;DHT22;11376;50.932;4.442;2022-10-16T00:03:30;15.80;99.90
22418;DHT22;11376;50.932;4.442;2022-10-16T00:05:59;15.80;99.90
22418;DHT22;11376;50.932;4.442;2022-10-16T00:08:25;15.70;99.90
22418;DHT22;11376;50.932;4.442;2022-10-16T00:10:51;15.70;99.90
22418;DHT22;11376;50.932;4.442;2022-10-16T00:13:16;15.80;99.90
22418;DHT22;11376;50.932;4.442;2022-10-16T00:15:43;15.90;99.90
22418;DHT22;11376;50.932;4.442;2022-10-16T00:18:10;15.90;99.90
22418;DHT22;11376;50.932;4.442;2022-10-16T00:20:35;15.80;99.90
22418;DHT22;11376;50.932;4.442;2022-10-16T00:23:03;15.70;99.90
22418;DHT22;11376;50.932;4.442;2022-10-16T00:25:29;15.70;99.90
22418;DHT22;11376;50.932;4.442;2022-10-16T00:27:54;15.80;99.90
22418;DHT22;11376;50.932;4.442;2022-10-16T00:30:20;15.80;99.90
22418;DHT22;11376;50.932;4.442;2022-10-16T00:32:45;15.60;99.90
22418;DHT22;11376;50.932;4.442;2022-10-16T00:35:11;15.60;99.90
22418;DHT22;11376;50.932;4.442;2022-10-16T00:37:37;15.70;99.90
22418;DHT22;11376;50.932;4.442;2022-10-16T00:40:02;15.70;99.90
22418;DHT22;11376;50.932;4.442;2022-10-16T00:42:28;15.80;99.90
22418;DHT22;11376;50.932;4.442;2022-10-16T00:44:55;15.70;99.90
22418;DHT22;11376;50.932;4.442;2022-10-16T00:47:32;15.80;99.90
22418;DHT22;11376;50.932;4.442;2022-10-16T00:50:07;15.70;99.90
22418;DHT22;11376;50.932;4.442;2022-10-16T00:52:33;15.70;99.90
22418;DHT22;11376;50.932;4.442;2022-10-16T00:55:00;15.70;99.90
22418;DHT22;11376;50.932;4.442;2022-10-16T00:57:27;15.70;99.90
22418;DHT22;11376;50.932;4.442;2022-10-16T00:59:53;15.70;99.90
22418;DHT22;11376;50.932;4.442;2022-10-16T01:02:19;15.70;99.90
22418;DHT22;11376;50.932;4.442;2022-10-16T01:04:50;15.70;99.90
22418;DHT22;11376;50.932;4.442;2022-10-16T01:13:15;15.60;99.90
22418;DHT22;11376;50.932;4.442;2022-10-16T01:16:06;15.60;99.90
22418;DHT22;11376;50.932;4.442;2022-10-16T01:18:53;15.60;99.90
22418;DHT22;11376;50.932;4.442;2022-10-16T01:21:31;15.60;99.90
22418;DHT22;11376;50.932;4.442;2022-10-16T01:29:37;15.40;99.90
22418;DHT22;11376;50.932;4.442;2022-10-16T01:35:02;15.40;99.90
22418;DHT22;11376;50.932;4.442;2022-10-16T01:37:37;15.40;99.90
22418;DHT22;11376;50.932;4.442;2022-10-16T01:40:07;15.40;99.90
22418;DHT22;11376;50.932;4.442;2022-10-16T01:42:37;15.30;99.90
22418;DHT22;11376;50.932;4.442;2022-10-16T01:45:06;15.30;99.90
22418;DHT22;11376;50.932;4.442;2022-10-16T01:47:35;15.30;99.90
22418;DHT22;11376;50.932;4.442;2022-10-16T01:50:03;15.30;99.90
22418;DHT22;11376;50.932;4.442;2022-10-16T01:52:35;15.30;99.90
22418;DHT22;11376;50.932;4.442;2022-10-16T01:55:04;15.30;99.90
22418;DHT22;11376;50.932;4.442;2022-10-16T01:57:32;15.30;99.90
22418;DHT22;11376;50.932;4.442;2022-10-16T02:00:03;15.40;99.90
22418;DHT22;11376;50.932;4.442;2022-10-16T02:02:30;15.30;99.90
22418;DHT22;11376;50.932;4.442;2022-10-16T02:05:31;15.40;99.90
22418;DHT22;11376;50.932;4.442;2022-10-16T02:07:58;15.40;99.90
22418;DHT22;11376;50.932;4.442;2022-10-16T02:10:24;15.30;99.90
22418;DHT22;11376;50.932;4.442;2022-10-16T02:13:01;15.40;99.90
22418;DHT22;11376;50.932;4.442;2022-10-16T02:15:28;15.40;99.90
22418;DHT22;11376;50.932;4.442;2022-10-16T02:17:54;15.30;99.90
22418;DHT22;11376;50.932;4.442;2022-10-16T02:20:25;15.30;99.90
22418;DHT22;11376;50.932;4.442;2022-10-16T02:22:52;15.40;99.90
22418;DHT22;11376;50.932;4.442;2022-10-16T02:25:30;15.40;99.90
22418;DHT22;11376;50.932;4.442;2022-10-16T02:30:47;15.30;99.90
22418;DHT22;11376;50.932;4.442;2022-10-16T02:33:14;15.30;99.90
22418;DHT22;11376;50.932;4.442;2022-10-16T02:35:42;15.30;99.90
22418;DHT22;11376;50.932;4.442;2022-10-16T02:38:09;15.30;99.90
22418;DHT22;11376;50.932;4.442;2022-10-16T02:40:36;15.30;99.90
22418;DHT22;11376;50.932;4.442;2022-10-16T02:43:04;15.30;99.90
22418;DHT22;11376;50.932;4.442;2022-10-16T02:45:30;15.20;99.90
22418;DHT22;11376;50.932;4.442;2022-10-16T02:47:56;15.20;99.90
22418;DHT22;11376;50.932;4.442;2022-10-16T02:50:21;15.10;99.90
22418;DHT22;11376;50.932;4.442;2022-10-16T02:52:47;15.10;99.90
22418;DHT22;11376;50.932;4.442;2022-10-16T02:55:13;15.10;99.90
22418;DHT22;11376;50.932;4.442;2022-10-16T02:57:39;15.20;99.90
22418;DHT22;11376;50.932;4.442;2022-10-16T03:00:07;15.10;99.90
22418;DHT22;11376;50.932;4.442;2022-10-16T03:02:33;15.20;99.90
22418;DHT22;11376;50.932;4.442;2022-10-16T03:04:59;15.20;99.90
22418;DHT22;11376;50.932;4.442;2022-10-16T03:07:24;15.20;99.90
22418;DHT22;11376;50.932;4.442;2022-10-16T03:09:50;15.20;99.90
22418;DHT22;11376;50.932;4.442;2022-10-16T03:12:15;15.30;99.90
22418;DHT22;11376;50.932;4.442;2022-10-16T03:14:41;15.30;99.90
22418;DHT22;11376;50.932;4.442;2022-10-16T03:17:06;15.30;99.90
22418;DHT22;11376;50.932;4.442;2022-10-16T03:19:32;15.30;99.90
22418;DHT22;11376;50.932;4.442;2022-10-16T03:21:58;15.30;99.90
22418;DHT22;11376;50.932;4.442;2022-10-16T03:24:23;15.30;99.90
22418;DHT22;11376;50.932;4.442;2022-10-16T03:26:49;15.40;99.90
22418;DHT22;11376;50.932;4.442;2022-10-16T03:29:14;15.40;99.90
22418;DHT22;11376;50.932;4.442;2022-10-16T03:31:40;15.40;99.90
22418;DHT22;11376;50.932;4.442;2022-10-16T03:34:06;15.30;99.90
22418;DHT22;11376;50.932;4.442;2022-10-16T03:36:31;15.30;99.90
22418;DHT22;11376;50.932;4.442;2022-10-16T03:38:57;15.20;99.90
22418;DHT22;11376;50.932;4.442;2022-10-16T03:41:22;15.20;99.90
22418;DHT22;11376;50.932;4.442;2022-10-16T03:43:48;15.20;99.90
22418;DHT22;11376;50.932;4.442;2022-10-16T03:46:14;15.20;99.90
22418;DHT22;11376;50.932;4.442;2022-10-16T03:48:39;15.20;99.90
22418;DHT22;11376;50.932;4.442;2022-10-16T03:51:05;15.10;99.90
22418;DHT22;11376;50.932;4.442;2022-10-16T03:53:31;15.10;99.90
22418;DHT22;11376;50.932;4.442;2022-10-16T03:55:56;15.10;99.90
22418;DHT22;11376;50.932;4.442;2022-10-16T03:58:22;15.20;99.90
22418;DHT22;11376;50.932;4.442;2022-10-16T04:00:48;15.10;99.90
22418;DHT22;11376;50.932;4.442;2022-10-16T04:03:14;15.10;99.90
22418;DHT22;11376;50.932;4.442;2022-10-16T04:05:39;15.20;99.90
22418;DHT22;11376;50.932;4.442;2022-10-16T04:08:05;15.20;99.90
22418;DHT22;11376;50.932;4.442;2022-10-16T04:10:31;15.30;99.90
22418;DHT22;11376;50.932;4.442;2022-10-16T04:12:56;15.20;99.90
22418;DHT22;11376;50.932;4.442;2022-10-16T04:15:23;15.10;99.90
22418;DHT22;11376;50.932;4.442;2022-10-16T04:17:49;15.20;99.90
22418;DHT22;11376;50.932;4.442;2022-10-16T04:20:15;15.20;99.90
22418;DHT22;11376;50.932;4.442;2022-10-16T04:22:40;15.10;99.90
22418;DHT22;11376;50.932;4.442;2022-10-16T04:25:06;15.20;99.90
22418;DHT22;11376;50.932;4.442;2022-10-16T04:27:32;15.20;99.90
22418;DHT22;11376;50.932;4.442;2022-10-16T04:29:58;15.10;99.90
22418;DHT22;11376;50.932;4.442;2022-10-16T04:32:24;15.10;99.90
22418;DHT22;11376;50.932;4.442;2022-10-16T04:34:49;15.10;99.90
22418;DHT22;11376;50.932;4.442;2022-10-16T04:37:15;15.10;99.90
22418;DHT22;11376;50.932;4.442;2022-10-16T04:39:40;15.10;99.90
22418;DHT22;11376;50.932;4.442;2022-10-16T04:42:06;15.10;99.90
22418;DHT22;11376;50.932;4.442;2022-10-16T04:44:32;15.10;99.90
22418;DHT22;11376;50.932;4.442;2022-10-16T04:46:57;15.10;99.90
22418;DHT22;11376;50.932;4.442;2022-10-16T04:49:23;15.10;99.90
22418;DHT22;11376;50.932;4.442;2022-10-16T04:51:48;15.10;99.90
22418;DHT22;11376;50.932;4.442;2022-10-16T04:54:14;15.20;99.90
22418;DHT22;11376;50.932;4.442;2022-10-16T04:56:40;15.20;99.90
22418;DHT22;11376;50.932;4.442;2022-10-16T04:59:12;15.20;99.90
22418;DHT22;11376;50.932;4.442;2022-10-16T05:01:38;15.10;99.90
22418;DHT22;11376;50.932;4.442;2022-10-16T05:04:03;15.00;99.90
22418;DHT22;11376;50.932;4.442;2022-10-16T05:06:29;14.90;99.90
22418;DHT22;11376;50.932;4.442;2022-10-16T05:08:55;14.90;99.90
22418;DHT22;11376;50.932;4.442;2022-10-16T05:11:20;14.90;99.90
22418;DHT22;11376;50.932;4.442;2022-10-16T05:13:46;14.90;99.90
22418;DHT22;11376;50.932;4.442;2022-10-16T05:16:12;14.90;99.90
22418;DHT22;11376;50.932;4.442;2022-10-16T05:18:38;14.90;99.90
22418;DHT22;11376;50.932;4.442;2022-10-16T05:21:03;14.90;99.90
22418;DHT22;11376;50.932;4.442;2022-10-16T05:23:29;14.80;99.90
22418;DHT22;11376;50.932;4.442;2022-10-16T05:25:58;14.80;99.90
22418;DHT22;11376;50.932;4.442;2022-10-16T05:28:26;14.90;99.90
22418;DHT22;11376;50.932;4.442;2022-10-16T05:30:52;14.80;99.90
22418;DHT22;11376;50.932;4.442;2022-10-16T05:33:20;14.80;99.90
22418;DHT22;11376;50.932;4.442;2022-10-16T05:35:46;14.80;99.90
22418;DHT22;11376;50.932;4.442;2022-10-16T05:38:11;14.70;99.90
22418;DHT22;11376;50.932;4.442;2022-10-16T05:40:37;14.70;99.90
22418;DHT22;11376;50.932;4.442;2022-10-16T05:43:03;14.60;99.90
22418;DHT22;11376;50.932;4.442;2022-10-16T05:45:28;14.60;99.90
22418;DHT22;11376;50.932;4.442;2022-10-16T05:47:54;14.70;99.90
22418;DHT22;11376;50.932;4.442;2022-10-16T05:50:20;14.70;99.90
22418;DHT22;11376;50.932;4.442;2022-10-16T05:52:45;14.70;99.90
22418;DHT22;11376;50.932;4.442;2022-10-16T05:55:11;14.70;99.90
22418;DHT22;11376;50.932;4.442;2022-10-16T05:57:36;14.60;99.90
22418;DHT22;11376;50.932;4.442;2022-10-16T06:00:03;14.70;99.90
22418;DHT22;11376;50.932;4.442;2022-10-16T06:02:29;14.70;99.90
22418;DHT22;11376;50.932;4.442;2022-10-16T06:04:54;14.70;99.90
22418;DHT22;11376;50.932;4.442;2022-10-16T06:07:20;14.70;99.90
22418;DHT22;11376;50.932;4.442;2022-10-16T06:09:50;14.70;99.90
22418;DHT22;11376;50.932;4.442;2022-10-16T06:12:16;14.80;99.90
22418;DHT22;11376;50.932;4.442;2022-10-16T06:14:42;14.80;99.90
22418;DHT22;11376;50.932;4.442;2022-10-16T06:17:08;14.80;99.90
22418;DHT22;11376;50.932;4.442;2022-10-16T06:19:33;14.80;99.90
22418;DHT22;11376;50.932;4.442;2022-10-16T06:21:59;14.80;99.90
22418;DHT22;11376;50.932;4.442;2022-10-16T06:24:36;14.80;99.90
22418;DHT22;11376;50.932;4.442;2022-10-16T06:27:03;14.80;99.90
22418;DHT22;11376;50.932;4.442;2022-10-16T06:29:29;14.80;99.90
22418;DHT22;11376;50.932;4.442;2022-10-16T06:31:54;14.90;99.90
22418;DHT22;11376;50.932;4.442;2022-10-16T06:34:20;15.00;99.90
22418;DHT22;11376;50.932;4.442;2022-10-16T06:36:45;15.00;99.90
22418;DHT22;11376;50.932;4.442;2022-10-16T06:39:11;15.00;99.90
22418;DHT22;11376;50.932;4.442;2022-10-16T06:41:36;15.10;99.90
22418;DHT22;11376;50.932;4.442;2022-10-16T06:44:05;15.20;99.90
22418;DHT22;11376;50.932;4.442;2022-10-16T06:46:31;15.20;99.90
22418;DHT22;11376;50.932;4.442;2022-10-16T06:48:57;15.30;99.90
22418;DHT22;11376;50.932;4.442;2022-10-16T06:51:23;15.40;99.90
22418;DHT22;11376;50.932;4.442;2022-10-16T06:53:54;15.30;99.90
22418;DHT22;11376;50.932;4.442;2022-10-16T06:56:22;15.30;99.90
22418;DHT22;11376;50.932;4.442;2022-10-16T06:58:49;15.20;99.90
22418;DHT22;11376;50.932;4.442;2022-10-16T07:01:16;15.20;99.90
22418;DHT22;11376;50.932;4.442;2022-10-16T07:03:43;15.30;99.90
22418;DHT22;11376;50.932;4.442;2022-10-16T07:06:11;15.30;99.90
22418;DHT22;11376;50.932;4.442;2022-10-16T07:08:39;15.40;99.90
22418;DHT22;11376;50.932;4.442;2022-10-16T07:11:09;15.40;99.90
22418;DHT22;11376;50.932;4.442;2022-10-16T07:13:36;15.50;99.90
22418;DHT22;11376;50.932;4.442;2022-10-16T07:16:18;15.40;99.90
22418;DHT22;11376;50.932;4.442;2022-10-16T07:18:45;15.50;99.90
22418;DHT22;11376;50.932;4.442;2022-10-16T07:21:12;15.50;99.90
22418;DHT22;11376;50.932;4.442;2022-10-16T07:23:38;15.40;99.90
22418;DHT22;11376;50.932;4.442;2022-10-16T07:26:06;15.40;99.90
22418;DHT22;11376;50.932;4.442;2022-10-16T07:28:32;15.40;99.90
22418;DHT22;11376;50.932;4.442;2022-10-16T07:31:02;15.50;99.90
22418;DHT22;11376;50.932;4.442;2022-10-16T07:33:28;15.50;99.90
22418;DHT22;11376;50.932;4.442;2022-10-16T07:35:54;15.50;99.90
22418;DHT22;11376;50.932;4.442;2022-10-16T07:38:21;15.40;99.90
22418;DHT22;11376;50.932;4.442;2022-10-16T07:40:47;15.50;99.90
22418;DHT22;11376;50.932;4.442;2022-10-16T07:43:13;15.60;99.90
22418;DHT22;11376;50.932;4.442;2022-10-16T07:45:47;15.60;99.90
22418;DHT22;11376;50.932;4.442;2022-10-16T07:48:13;15.60;99.90
22418;DHT22;11376;50.932;4.442;2022-10-16T07:50:39;15.70;99.90
22418;DHT22;11376;50.932;4.442;2022-10-16T07:53:05;15.70;99.90
22418;DHT22;11376;50.932;4.442;2022-10-16T07:55:30;15.80;99.90
22418;DHT22;11376;50.932;4.442;2022-10-16T07:57:56;15.90;99.90
22418;DHT22;11376;50.932;4.442;2022-10-16T08:00:21;15.90;99.90
22418;DHT22;11376;50.932;4.442;2022-10-16T08:02:47;16.00;99.90
22418;DHT22;11376;50.932;4.442;2022-10-16T08:05:12;16.00;99.90
22418;DHT22;11376;50.932;4.442;2022-10-16T08:07:38;16.10;99.90
22418;DHT22;11376;50.932;4.442;2022-10-16T08:10:04;16.10;99.90
22418;DHT22;11376;50.932;4.442;2022-10-16T08:12:30;16.20;99.90
22418;DHT22;11376;50.932;4.442;2022-10-16T08:14:55;16.10;99.90
22418;DHT22;11376;50.932;4.442;2022-10-16T08:17:21;16.20;99.90
22418;DHT22;11376;50.932;4.442;2022-10-16T08:19:47;16.30;99.90
22418;DHT22;11376;50.932;4.442;2022-10-16T08:22:14;16.20;99.90
22418;DHT22;11376;50.932;4.442;2022-10-16T08:24:39;16.20;99.90
22418;DHT22;11376;50.932;4.442;2022-10-16T08:27:05;16.30;99.90
22418;DHT22;11376;50.932;4.442;2022-10-16T08:29:31;16.40;99.90
22418;DHT22;11376;50.932;4.442;2022-10-16T08:31:56;16.50;99.90
22418;DHT22;11376;50.932;4.442;2022-10-16T08:34:22;16.50;99.90
22418;DHT22;11376;50.932;4.442;2022-10-16T08:36:48;16.50;99.90
22418;DHT22;11376;50.932;4.442;2022-10-16T08:39:15;16.60;99.90
22418;DHT22;11376;50.932;4.442;2022-10-16T08:42:11;16.60;99.90
22418;DHT22;11376;50.932;4.442;2022-10-16T08:49:45;16.80;99.90
22418;DHT22;11376;50.932;4.442;2022-10-16T08:52:13;17.00;99.90
22418;DHT22;11376;50.932;4.442;2022-10-16T08:54:43;17.00;99.90
22418;DHT22;11376;50.932;4.442;2022-10-16T08:57:19;17.10;99.90
22418;DHT22;11376;50.932;4.442;2022-10-16T08:59:45;17.20;99.90
22418;DHT22;11376;50.932;4.442;2022-10-16T09:10:19;17.30;99.90
22418;DHT22;11376;50.932;4.442;2022-10-16T09:12:49;17.30;99.90
22418;DHT22;11376;50.932;4.442;2022-10-16T09:15:43;17.50;99.90
22418;DHT22;11376;50.932;4.442;2022-10-16T09:18:34;17.60;99.90
22418;DHT22;11376;50.932;4.442;2022-10-16T09:21:21;17.80;99.90
22418;DHT22;11376;50.932;4.442;2022-10-16T09:23:49;17.80;99.90
22418;DHT22;11376;50.932;4.442;2022-10-16T09:26:16;17.80;99.90
22418;DHT22;11376;50.932;4.442;2022-10-16T09:28:42;17.90;99.90
22418;DHT22;11376;50.932;4.442;2022-10-16T09:31:20;18.10;99.90
22418;DHT22;11376;50.932;4.442;2022-10-16T09:33:57;18.30;99.90
22418;DHT22;11376;50.932;4.442;2022-10-16T09:36:25;18.40;99.90
22418;DHT22;11376;50.932;4.442;2022-10-16T09:39:03;18.70;99.90
22418;DHT22;11376;50.932;4.442;2022-10-16T09:41:30;18.70;99.90
22418;DHT22;11376;50.932;4.442;2022-10-16T09:43:57;18.90;99.90
22418;DHT22;11376;50.932;4.442;2022-10-16T09:49:00;19.80;99.90
22418;DHT22;11376;50.932;4.442;2022-10-16T09:51:34;20.10;99.90
22418;DHT22;11376;50.932;4.442;2022-10-16T09:56:36;21.20;99.90
22418;DHT22;11376;50.932;4.442;2022-10-16T09:59:21;21.50;99.90
22418;DHT22;11376;50.932;4.442;2022-10-16T10:01:53;22.10;99.90
22418;DHT22;11376;50.932;4.442;2022-10-16T10:04:24;22.90;99.90
22418;DHT22;11376;50.932;4.442;2022-10-16T10:06:55;24.10;99.90
22418;DHT22;11376;50.932;4.442;2022-10-16T10:09:25;25.00;99.90
22418;DHT22;11376;50.932;4.442;2022-10-16T10:14:36;27.50;99.90
22418;DHT22;11376;50.932;4.442;2022-10-16T10:19:39;30.50;99.90
22418;DHT22;11376;50.932;4.442;2022-10-16T10:30:20;36.90;67.00
22418;DHT22;11376;50.932;4.442;2022-10-16T10:33:16;35.00;64.00
22418;DHT22;11376;50.932;4.442;2022-10-16T10:35:48;33.10;69.80
22418;DHT22;11376;50.932;4.442;2022-10-16T10:38:37;34.40;67.30
22418;DHT22;11376;50.932;4.442;2022-10-16T10:46:32;39.40;53.10
22418;DHT22;11376;50.932;4.442;2022-10-16T10:52:02;39.50;49.60
22418;DHT22;11376;50.932;4.442;2022-10-16T11:05:44;40.40;44.30
22418;DHT22;11376;50.932;4.442;2022-10-16T11:08:17;40.00;43.10
22418;DHT22;11376;50.932;4.442;2022-10-16T11:11:00;38.00;44.80
22418;DHT22;11376;50.932;4.442;2022-10-16T11:13:39;37.40;45.30
22418;DHT22;11376;50.932;4.442;2022-10-16T11:16:19;37.70;45.70
22418;DHT22;11376;50.932;4.442;2022-10-16T11:19:19;37.70;46.00
22418;DHT22;11376;50.932;4.442;2022-10-16T11:21:53;37.80;45.40
22418;DHT22;11376;50.932;4.442;2022-10-16T11:24:42;39.30;43.80
22418;DHT22;11376;50.932;4.442;2022-10-16T11:27:16;40.00;42.00
22418;DHT22;11376;50.932;4.442;2022-10-16T11:29:49;40.10;41.80
22418;DHT22;11376;50.932;4.442;2022-10-16T11:32:32;40.00;41.40
22418;DHT22;11376;50.932;4.442;2022-10-16T11:35:14;40.20;40.20
22418;DHT22;11376;50.932;4.442;2022-10-16T11:37:44;39.60;40.80
22418;DHT22;11376;50.932;4.442;2022-10-16T11:40:27;39.60;40.60
22418;DHT22;11376;50.932;4.442;2022-10-16T11:43:12;40.50;39.90
22418;DHT22;11376;50.932;4.442;2022-10-16T11:45:44;40.30;39.10
22418;DHT22;11376;50.932;4.442;2022-10-16T11:50:59;39.50;40.10
22418;DHT22;11376;50.932;4.442;2022-10-16T11:54:02;39.50;40.00
22418;DHT22;11376;50.932;4.442;2022-10-16T11:56:30;41.30;39.10
22418;DHT22;11376;50.932;4.442;2022-10-16T11:59:51;43.00;37.40
22418;DHT22;11376;50.932;4.442;2022-10-16T12:04:50;39.50;38.20
22418;DHT22;11376;50.932;4.442;2022-10-16T12:07:24;36.40;40.80
22418;DHT22;11376;50.932;4.442;2022-10-16T12:09:52;34.30;43.30
22418;DHT22;11376;50.932;4.442;2022-10-16T12:12:38;34.00;45.10
22418;DHT22;11376;50.932;4.442;2022-10-16T12:15:24;33.90;45.00
22418;DHT22;11376;50.932;4.442;2022-10-16T12:17:50;33.20;45.90
22418;DHT22;11376;50.932;4.442;2022-10-16T12:22:56;32.40;48.40
22418;DHT22;11376;50.932;4.442;2022-10-16T12:25:29;33.50;47.90
22418;DHT22;11376;50.932;4.442;2022-10-16T12:28:07;35.20;45.60
22418;DHT22;11376;50.932;4.442;2022-10-16T12:30:43;34.70;45.30
22418;DHT22;11376;50.932;4.442;2022-10-16T12:33:24;33.40;46.60
22418;DHT22;11376;50.932;4.442;2022-10-16T12:35:50;32.10;48.40
22418;DHT22;11376;50.932;4.442;2022-10-16T12:38:28;31.70;50.00
22418;DHT22;11376;50.932;4.442;2022-10-16T12:41:02;32.00;50.10
22418;DHT22;11376;50.932;4.442;2022-10-16T12:43:42;31.50;50.50
22418;DHT22;11376;50.932;4.442;2022-10-16T12:48:34;29.90;52.60
22418;DHT22;11376;50.932;4.442;2022-10-16T12:51:19;28.90;54.50
22418;DHT22;11376;50.932;4.442;2022-10-16T12:53:46;27.80;57.10
22418;DHT22;11376;50.932;4.442;2022-10-16T12:56:39;27.00;58.80
22418;DHT22;11376;50.932;4.442;2022-10-16T12:59:24;25.90;63.60
22418;DHT22;11376;50.932;4.442;2022-10-16T13:11:19;24.80;72.90
22418;DHT22;11376;50.932;4.442;2022-10-16T13:14:02;25.10;73.00
22418;DHT22;11376;50.932;4.442;2022-10-16T13:22:14;26.00;67.40
22418;DHT22;11376;50.932;4.442;2022-10-16T13:24:55;25.60;69.30
22418;DHT22;11376;50.932;4.442;2022-10-16T13:30:11;25.10;72.80
22418;DHT22;11376;50.932;4.442;2022-10-16T13:32:38;25.00;74.50
22418;DHT22;11376;50.932;4.442;2022-10-16T13:35:22;24.70;76.40
22418;DHT22;11376;50.932;4.442;2022-10-16T13:37:48;24.60;78.10
22418;DHT22;11376;50.932;4.442;2022-10-16T13:40:23;24.60;79.40
22418;DHT22;11376;50.932;4.442;2022-10-16T13:42:50;24.60;80.50
22418;DHT22;11376;50.932;4.442;2022-10-16T13:45:24;24.60;81.60
22418;DHT22;11376;50.932;4.442;2022-10-16T13:48:04;24.50;82.50
22418;DHT22;11376;50.932;4.442;2022-10-16T13:50:30;24.10;85.10
22418;DHT22;11376;50.932;4.442;2022-10-16T13:53:06;24.00;86.80
22418;DHT22;11376;50.932;4.442;2022-10-16T13:55:32;23.90;88.80
22418;DHT22;11376;50.932;4.442;2022-10-16T13:58:14;23.80;90.10
22418;DHT22;11376;50.932;4.442;2022-10-16T14:00:52;23.80;91.00
22418;DHT22;11376;50.932;4.442;2022-10-16T14:03:19;23.80;91.60
22418;DHT22;11376;50.932;4.442;2022-10-16T14:05:54;23.70;92.10
22418;DHT22;11376;50.932;4.442;2022-10-16T14:08:21;23.60;93.00
22418;DHT22;11376;50.932;4.442;2022-10-16T14:10:49;23.70;93.50
22418;DHT22;11376;50.932;4.442;2022-10-16T14:13:18;23.70;93.60
22418;DHT22;11376;50.932;4.442;2022-10-16T14:15:47;23.60;93.70
22418;DHT22;11376;50.932;4.442;2022-10-16T14:18:21;23.60;93.90
22418;DHT22;11376;50.932;4.442;2022-10-16T14:20:48;23.40;94.30
22418;DHT22;11376;50.932;4.442;2022-10-16T14:23:37;23.30;94.80
22418;DHT22;11376;50.932;4.442;2022-10-16T14:26:13;23.20;95.70
22418;DHT22;11376;50.932;4.442;2022-10-16T14:28:40;23.20;96.30
22418;DHT22;11376;50.932;4.442;2022-10-16T14:31:25;23.30;96.70
22418;DHT22;11376;50.932;4.442;2022-10-16T14:33:51;23.20;97.00
22418;DHT22;11376;50.932;4.442;2022-10-16T14:36:17;23.20;97.20
22418;DHT22;11376;50.932;4.442;2022-10-16T14:39:03;23.10;97.40
22418;DHT22;11376;50.932;4.442;2022-10-16T14:41:41;23.10;97.70
22418;DHT22;11376;50.932;4.442;2022-10-16T14:44:10;23.20;98.10
22418;DHT22;11376;50.932;4.442;2022-10-16T14:46:38;23.30;98.30
22418;DHT22;11376;50.932;4.442;2022-10-16T14:51:37;23.40;98.70
22418;DHT22;11376;50.932;4.442;2022-10-16T14:54:03;23.50;98.90
22418;DHT22;11376;50.932;4.442;2022-10-16T14:56:33;23.40;99.00
22418;DHT22;11376;50.932;4.442;2022-10-16T14:59:00;23.40;99.10
22418;DHT22;11376;50.932;4.442;2022-10-16T15:01:26;23.50;99.30
22418;DHT22;11376;50.932;4.442;2022-10-16T15:03:52;23.50;99.30
22418;DHT22;11376;50.932;4.442;2022-10-16T15:06:24;23.40;99.40
22418;DHT22;11376;50.932;4.442;2022-10-16T15:08:49;23.30;99.60
22418;DHT22;11376;50.932;4.442;2022-10-16T15:11:17;23.30;99.90
22418;DHT22;11376;50.932;4.442;2022-10-16T15:13:43;23.30;99.90
22418;DHT22;11376;50.932;4.442;2022-10-16T15:16:14;23.30;99.90
22418;DHT22;11376;50.932;4.442;2022-10-16T15:18:39;23.30;99.90
22418;DHT22;11376;50.932;4.442;2022-10-16T15:21:05;23.40;99.90
22418;DHT22;11376;50.932;4.442;2022-10-16T15:23:30;23.30;99.90
22418;DHT22;11376;50.932;4.442;2022-10-16T15:25:56;23.20;99.90
22418;DHT22;11376;50.932;4.442;2022-10-16T15:28:23;23.20;99.90
22418;DHT22;11376;50.932;4.442;2022-10-16T15:30:51;23.20;99.90
22418;DHT22;11376;50.932;4.442;2022-10-16T15:33:22;23.10;99.90
22418;DHT22;11376;50.932;4.442;2022-10-16T15:35:52;22.90;99.90
22418;DHT22;11376;50.932;4.442;2022-10-16T15:38:19;22.80;99.90
22418;DHT22;11376;50.932;4.442;2022-10-16T15:40:46;22.70;99.90
22418;DHT22;11376;50.932;4.442;2022-10-16T15:43:12;22.60;99.90
22418;DHT22;11376;50.932;4.442;2022-10-16T15:45:38;22.50;99.90
22418;DHT22;11376;50.932;4.442;2022-10-16T15:48:03;22.30;99.90
22418;DHT22;11376;50.932;4.442;2022-10-16T15:50:30;22.20;99.90
22418;DHT22;11376;50.932;4.442;2022-10-16T15:52:56;22.10;99.90
22418;DHT22;11376;50.932;4.442;2022-10-16T15:55:22;22.00;99.90
22418;DHT22;11376;50.932;4.442;2022-10-16T15:57:48;21.90;99.90
22418;DHT22;11376;50.932;4.442;2022-10-16T16:00:17;21.80;99.90
22418;DHT22;11376;50.932;4.442;2022-10-16T16:02:44;21.70;99.90
22418;DHT22;11376;50.932;4.442;2022-10-16T16:05:14;21.60;99.90
22418;DHT22;11376;50.932;4.442;2022-10-16T16:07:40;21.50;99.90
22418;DHT22;11376;50.932;4.442;2022-10-16T16:10:07;21.40;99.90
22418;DHT22;11376;50.932;4.442;2022-10-16T16:12:34;21.30;99.90
22418;DHT22;11376;50.932;4.442;2022-10-16T16:15:00;21.20;99.90
22418;DHT22;11376;50.932;4.442;2022-10-16T16:17:26;21.10;99.90
22418;DHT22;11376;50.932;4.442;2022-10-16T16:19:51;21.00;99.90
22418;DHT22;11376;50.932;4.442;2022-10-16T16:22:17;20.90;99.90
22418;DHT22;11376;50.932;4.442;2022-10-16T16:24:43;20.90;99.90
22418;DHT22;11376;50.932;4.442;2022-10-16T16:27:09;20.80;99.90
22418;DHT22;11376;50.932;4.442;2022-10-16T16:29:34;20.70;99.90
22418;DHT22;11376;50.932;4.442;2022-10-16T16:32:00;20.60;99.90
22418;DHT22;11376;50.932;4.442;2022-10-16T16:34:27;20.60;99.90
22418;DHT22;11376;50.932;4.442;2022-10-16T16:36:54;20.50;99.90
22418;DHT22;11376;50.932;4.442;2022-10-16T16:39:20;20.50;99.90
22418;DHT22;11376;50.932;4.442;2022-10-16T16:41:45;20.40;99.90
22418;DHT22;11376;50.932;4.442;2022-10-16T16:44:12;20.30;99.90
22418;DHT22;11376;50.932;4.442;2022-10-16T16:46:38;20.20;99.90
22418;DHT22;11376;50.932;4.442;2022-10-16T16:49:09;20.20;99.90
22418;DHT22;11376;50.932;4.442;2022-10-16T16:51:36;20.10;99.90
22418;DHT22;11376;50.932;4.442;2022-10-16T16:54:02;20.00;99.90
22418;DHT22;11376;50.932;4.442;2022-10-16T16:56:28;20.00;99.90
22418;DHT22;11376;50.932;4.442;2022-10-16T16:58:55;19.90;99.90
22418;DHT22;11376;50.932;4.442;2022-10-16T17:01:23;19.90;99.90
22418;DHT22;11376;50.932;4.442;2022-10-16T17:03:50;19.80;99.90
22418;DHT22;11376;50.932;4.442;2022-10-16T17:06:22;19.80;99.90
22418;DHT22;11376;50.932;4.442;2022-10-16T17:08:48;19.80;99.90
22418;DHT22;11376;50.932;4.442;2022-10-16T17:11:20;19.80;99.90
22418;DHT22;11376;50.932;4.442;2022-10-16T17:13:46;19.70;99.90
22418;DHT22;11376;50.932;4.442;2022-10-16T17:16:12;19.70;99.90
22418;DHT22;11376;50.932;4.442;2022-10-16T17:18:38;19.70;99.90
22418;DHT22;11376;50.932;4.442;2022-10-16T17:21:06;19.70;99.90
22418;DHT22;11376;50.932;4.442;2022-10-16T17:23:33;19.70;99.90